Time;durP1;ratioP1;P1;durP2;ratioP2;P2;SDS_P1;SDS_P2;PMS_P1;PMS_P2;Temp;Humidity;BMP_temperature;BMP_pressure;BME280_temperature;BME280_humidity;BME280_pressure;Samples;Min_cycle;Max_cycle;Signal;HPM_P1;HPM_P2
2021/08/26 07:44:53;;;;;;;6.32;3.25;;;18.70;99.90;;;;;;12197511;27;20477;-51
2021/08/26 07:50:40;;;;;;;8.00;3.53;;;19.00;99.90;;;;;;12151810;27;20136;-56
2021/08/26 07:56:27;;;;;;;7.85;4.03;;;19.80;99.90;;;;;;12158895;27;20058;-51
2021/08/26 08:02:15;;;;;;;6.75;3.30;;;20.10;99.90;;;;;;12164858;27;20164;-60
2021/08/26 08:08:02;;;;;;;6.82;3.45;;;20.40;99.90;;;;;;12180599;27;20056;-52
2021/08/26 08:13:51;;;;;;;7.13;3.92;;;20.70;99.70;;;;;;12177079;28;20292;-54
2021/08/26 08:19:40;;;;;;;18.85;10.73;;;21.10;98.70;;;;;;12177466;28;20039;-53
2021/08/26 08:25:26;;;;;;;12.30;7.63;;;21.30;98.40;;;;;;12180345;28;20032;-50
2021/08/26 08:31:13;;;;;;;9.20;4.45;;;21.30;97.90;;;;;;12177023;28;20056;-50
2021/08/26 08:37:03;;;;;;;11.93;4.25;;;21.10;97.70;;;;;;12179170;28;20066;-53
2021/08/26 08:42:50;;;;;;;8.00;3.92;;;21.20;98.40;;;;;;12163656;27;20055;-53
2021/08/26 08:48:40;;;;;;;4.93;3.42;;;21.40;97.80;;;;;;12151333;27;24054;-53
2021/08/26 08:54:28;;;;;;;6.05;3.60;;;21.50;97.50;;;;;;12142396;27;20436;-54
2021/08/26 09:00:17;;;;;;;5.78;3.60;;;21.60;97.40;;;;;;12143794;27;20051;-53
2021/08/26 09:06:04;;;;;;;7.03;3.58;;;21.60;97.20;;;;;;12126836;27;20063;-50
2021/08/26 09:11:55;;;;;;;6.88;3.60;;;21.80;97.10;;;;;;12117754;27;21039;-50
2021/08/26 09:17:44;;;;;;;4.78;3.53;;;21.80;97.20;;;;;;12127852;27;20039;-51
2021/08/26 09:23:33;;;;;;;4.85;3.63;;;22.00;97.00;;;;;;12119578;27;20082;-50
2021/08/26 09:29:21;;;;;;;6.43;3.50;;;22.10;96.60;;;;;;12125912;27;20787;-55
2021/08/26 09:35:20;;;;;;;6.28;3.28;;;22.10;96.60;;;;;;12123384;27;20043;-51
2021/08/26 09:41:07;;;;;;;5.38;3.25;;;22.10;96.60;;;;;;12107307;27;20349;-54
2021/08/26 09:46:57;;;;;;;4.10;3.08;;;22.00;96.50;;;;;;12126576;27;20043;-53
2021/08/26 09:52:52;;;;;;;6.80;3.75;;;22.10;96.80;;;;;;12142648;27;20085;-53
2021/08/26 09:58:44;;;;;;;9.05;3.97;;;22.00;97.60;;;;;;12137730;27;20503;-51
2021/08/26 10:04:33;;;;;;;5.07;3.72;;;21.70;99.10;;;;;;12150294;27;20578;-54
2021/08/26 10:10:20;;;;;;;7.13;3.88;;;21.80;99.30;;;;;;12140755;27;20419;-55
2021/08/26 10:16:07;;;;;;;5.35;3.13;;;21.70;99.90;;;;;;12140730;27;20047;-51
2021/08/26 10:21:55;;;;;;;6.05;3.25;;;22.00;99.90;;;;;;12151457;27;20054;-50
2021/08/26 10:27:44;;;;;;;3.95;2.60;;;22.40;99.50;;;;;;12145286;27;20522;-50
2021/08/26 10:33:32;;;;;;;3.53;2.50;;;22.80;98.30;;;;;;12143446;27;20067;-49
2021/08/26 10:39:28;;;;;;;3.17;1.63;;;23.00;97.50;;;;;;12148735;27;20059;-53
2021/08/26 10:45:23;;;;;;;4.28;1.27;;;23.10;97.50;;;;;;12143318;27;20173;-52
2021/08/26 10:51:14;;;;;;;2.10;1.80;;;22.90;97.30;;;;;;12144243;27;20052;-66
2021/08/26 10:57:30;;;;;;;3.35;2.15;;;22.80;99.80;;;;;;12152797;27;20519;-48
2021/08/26 11:03:52;;;;;;;3.35;2.50;;;22.70;99.90;;;;;;12135088;27;20522;-46
2021/08/26 11:09:40;;;;;;;6.40;1.88;;;23.10;99.30;;;;;;12145208;27;20055;-52
2021/08/26 11:15:28;;;;;;;5.68;2.15;;;23.20;97.80;;;;;;12147414;27;20055;-49
2021/08/26 11:21:15;;;;;;;2.67;1.70;;;23.10;97.70;;;;;;12140002;27;20040;-48
2021/08/26 11:27:04;;;;;;;3.50;1.58;;;23.10;97.20;;;;;;12144073;27;20039;-48
2021/08/26 11:32:53;;;;;;;3.55;1.65;;;23.00;97.80;;;;;;12146277;27;20043;-47
2021/08/26 11:38:47;;;;;;;1.88;1.70;;;23.00;97.40;;;;;;12137226;28;20044;-51
2021/08/26 11:44:35;;;;;;;3.38;1.52;;;23.30;96.80;;;;;;12143459;28;20427;-49
2021/08/26 11:50:25;;;;;;;2.35;1.58;;;23.70;96.60;;;;;;12143989;28;20055;-46
2021/08/26 11:56:12;;;;;;;3.63;2.00;;;23.50;95.60;;;;;;12137524;28;20423;-47
2021/08/26 12:02:19;;;;;;;4.53;2.00;;;23.00;96.60;;;;;;12142120;28;20043;-51
2021/08/26 12:08:08;;;;;;;7.60;2.00;;;22.80;97.00;;;;;;12137802;28;20080;-47
2021/08/26 12:14:05;;;;;;;6.28;2.00;;;23.20;96.60;;;;;;12142102;28;20043;-47
2021/08/26 12:19:54;;;;;;;2.95;1.60;;;23.80;95.70;;;;;;12141842;28;20098;-49
2021/08/26 12:25:44;;;;;;;3.00;1.40;;;24.00;94.00;;;;;;12151261;28;20043;-47
2021/08/26 12:31:37;;;;;;;3.10;1.80;;;23.90;93.30;;;;;;12153998;27;20058;-49
2021/08/26 12:37:24;;;;;;;2.75;1.70;;;24.20;93.20;;;;;;12147251;27;20108;-49
2021/08/26 12:43:12;;;;;;;10.70;4.60;;;24.70;92.30;;;;;;12146759;27;20063;-51
2021/08/26 12:49:08;;;;;;;5.20;2.17;;;24.60;91.90;;;;;;12153530;27;20051;-46
2021/08/26 12:54:58;;;;;;;5.72;2.30;;;24.60;90.90;;;;;;12148458;27;20047;-48
2021/08/26 13:00:47;;;;;;;4.45;2.30;;;24.50;91.90;;;;;;12145857;27;20050;-49
2021/08/26 13:06:35;;;;;;;7.93;2.40;;;24.50;91.00;;;;;;12146879;27;20051;-46
2021/08/26 13:12:23;;;;;;;8.30;3.20;;;24.00;90.80;;;;;;12143516;27;20063;-47
2021/08/26 13:18:12;;;;;;;8.82;3.10;;;23.90;91.00;;;;;;12142587;27;21170;-48
2021/08/26 13:23:59;;;;;;;8.13;2.95;;;23.90;91.30;;;;;;12148493;27;20051;-50
2021/08/26 13:29:46;;;;;;;9.52;3.80;;;24.10;91.50;;;;;;12139404;27;20036;-51
2021/08/26 13:35:34;;;;;;;8.82;3.55;;;24.50;89.90;;;;;;12143724;27;20184;-46
2021/08/26 13:41:21;;;;;;;11.07;4.22;;;24.80;89.20;;;;;;12152307;27;20705;-46
2021/08/26 13:47:08;;;;;;;11.15;3.72;;;24.30;89.20;;;;;;12139342;27;20660;-50
2021/08/26 13:52:57;;;;;;;9.90;3.80;;;24.40;89.10;;;;;;12141624;27;20058;-50
2021/08/26 13:58:44;;;;;;;7.07;3.40;;;24.40;86.90;;;;;;12144488;27;20043;-50
2021/08/26 14:04:31;;;;;;;13.80;3.13;;;24.30;86.10;;;;;;12132806;27;20145;-48
2021/08/26 14:10:20;;;;;;;9.70;3.17;;;24.30;85.50;;;;;;12140151;27;20058;-54
2021/08/26 14:16:07;;;;;;;8.00;2.90;;;24.70;83.10;;;;;;12142233;27;20055;-48
2021/08/26 14:21:53;;;;;;;4.88;2.40;;;24.80;83.70;;;;;;12137518;27;20051;-52
2021/08/26 14:27:42;;;;;;;12.82;4.13;;;25.10;81.30;;;;;;12144272;27;20044;-48
2021/08/26 14:33:29;;;;;;;9.30;2.88;;;24.80;76.30;;;;;;12136579;27;20058;-47
2021/08/26 14:39:16;;;;;;;7.53;2.63;;;24.80;77.90;;;;;;12132539;27;20051;-63
2021/08/26 14:45:05;;;;;;;10.10;2.67;;;25.10;77.60;;;;;;12140264;27;20058;-63
2021/08/26 14:50:52;;;;;;;6.78;3.15;;;25.00;78.20;;;;;;12133158;27;20052;-46
2021/08/26 14:56:39;;;;;;;7.70;2.70;;;24.50;78.10;;;;;;12131501;27;21047;-48
2021/08/26 15:02:28;;;;;;;11.20;3.60;;;24.20;80.30;;;;;;12142104;27;20663;-48
2021/08/26 15:08:15;;;;;;;11.77;3.92;;;24.10;78.70;;;;;;12128940;27;20059;-49
2021/08/26 15:14:01;;;;;;;8.73;3.33;;;23.90;76.10;;;;;;12137080;27;20422;-50
2021/08/26 15:19:50;;;;;;;12.48;4.10;;;24.10;76.50;;;;;;12131056;27;20048;-49
2021/08/26 15:25:37;;;;;;;9.98;4.13;;;24.10;76.10;;;;;;12126044;27;20047;-47
2021/08/26 15:31:24;;;;;;;12.15;4.43;;;24.70;75.80;;;;;;12143777;27;20099;-48
2021/08/26 15:37:12;;;;;;;10.65;4.15;;;25.20;71.80;;;;;;12136359;27;20493;-47
2021/08/26 15:42:59;;;;;;;10.88;3.78;;;24.70;69.90;;;;;;12137984;28;20055;-46
2021/08/26 15:48:50;;;;;;;12.13;3.97;;;24.50;71.20;;;;;;12139579;28;20043;-45
2021/08/26 15:54:41;;;;;;;9.05;3.50;;;25.00;69.40;;;;;;12141629;28;20039;-49
2021/08/26 16:00:38;;;;;;;10.68;3.38;;;24.90;68.40;;;;;;12135812;28;20428;-49
2021/08/26 16:06:25;;;;;;;10.93;3.95;;;25.10;68.40;;;;;;12146347;27;20051;-48
2021/08/26 16:12:13;;;;;;;15.35;9.15;;;25.50;66.50;;;;;;12138629;27;20050;-47
2021/08/26 16:18:00;;;;;;;8.82;3.85;;;26.00;66.70;;;;;;12143427;27;20039;-44
2021/08/26 16:23:47;;;;;;;10.95;3.60;;;25.50;64.60;;;;;;12152513;27;20043;-48
2021/08/26 16:29:36;;;;;;;7.97;4.47;;;26.20;63.00;;;;;;12142641;27;20036;-47
2021/08/26 16:35:23;;;;;;;9.63;3.85;;;28.90;57.20;;;;;;12148150;27;20103;-47
2021/08/26 16:41:12;;;;;;;9.02;3.35;;;27.20;58.30;;;;;;12151406;27;20047;-46
2021/08/26 16:47:00;;;;;;;28.08;17.77;;;28.10;57.10;;;;;;12140505;27;20044;-47
2021/08/26 16:58:48;;;;;;;17.17;9.07;;;32.10;48.70;;;;;;12146644;27;20047;-48
2021/08/26 17:04:37;;;;;;;192.68;145.93;;;29.30;52.40;;;;;;12139361;27;20182;-45
2021/08/26 17:10:24;;;;;;;9.63;3.67;;;27.60;55.80;;;;;;12144105;27;20255;-46
2021/08/26 17:16:11;;;;;;;7.70;2.95;;;27.20;57.30;;;;;;12141429;27;20130;-47
2021/08/26 17:22:39;;;;;;;8.68;3.25;;;27.90;54.90;;;;;;12145519;27;20040;-46
2021/08/26 17:28:28;;;;;;;7.05;2.45;;;27.10;57.00;;;;;;12143617;28;20051;-45
2021/08/26 17:34:15;;;;;;;23.10;13.55;;;27.50;57.30;;;;;;12144009;28;20767;-44
2021/08/26 17:40:07;;;;;;;6.80;3.35;;;27.20;57.40;;;;;;12131312;27;20075;-44
2021/08/26 17:45:55;;;;;;;15.88;3.15;;;25.90;60.50;;;;;;12126056;27;20073;-49
2021/08/26 17:51:42;;;;;;;8.40;2.55;;;25.30;62.10;;;;;;12138121;27;20096;-48
2021/08/26 17:57:31;;;;;;;8.73;2.60;;;24.90;63.20;;;;;;12139104;27;20044;-51
2021/08/26 18:03:34;;;;;;;5.45;2.50;;;24.40;65.30;;;;;;12135182;27;20649;-50
2021/08/26 18:09:21;;;;;;;6.82;2.78;;;24.10;67.40;;;;;;12135974;27;20055;-49
2021/08/26 18:15:09;;;;;;;8.23;2.60;;;23.80;67.90;;;;;;12141599;27;20123;-49
2021/08/26 18:20:57;;;;;;;7.85;2.10;;;23.60;68.80;;;;;;12136670;27;20050;-48
2021/08/26 18:26:44;;;;;;;4.95;2.10;;;23.40;69.80;;;;;;12139199;27;20044;-49
2021/08/26 18:32:31;;;;;;;4.82;1.95;;;23.40;70.10;;;;;;12139674;27;20039;-48
2021/08/26 18:38:19;;;;;;;6.53;2.10;;;23.30;69.70;;;;;;12130572;27;20045;-48
2021/08/26 18:44:06;;;;;;;6.15;2.05;;;23.20;70.10;;;;;;12133096;27;20051;-51
2021/08/26 18:49:54;;;;;;;8.60;2.63;;;23.00;70.60;;;;;;12140032;27;20054;-53
2021/08/26 18:55:42;;;;;;;5.55;1.70;;;22.90;71.50;;;;;;12135223;27;20281;-49
2021/08/26 19:01:29;;;;;;;6.53;2.10;;;22.50;73.40;;;;;;12135224;27;20077;-52
2021/08/26 19:07:16;;;;;;;4.65;2.53;;;22.40;74.70;;;;;;12128119;27;20047;-49
2021/08/26 19:13:04;;;;;;;3.20;2.20;;;22.40;75.10;;;;;;12132964;27;20048;-49
2021/08/26 19:18:52;;;;;;;3.38;2.05;;;22.30;75.90;;;;;;12131011;27;20043;-54
2021/08/26 19:24:38;;;;;;;7.47;2.05;;;22.00;77.80;;;;;;12129370;27;20142;-49
2021/08/26 19:30:27;;;;;;;4.95;1.67;;;21.80;78.10;;;;;;12131623;27;20084;-56
2021/08/26 19:36:14;;;;;;;5.95;2.00;;;21.60;78.20;;;;;;12133382;27;20047;-46
2021/08/26 19:42:01;;;;;;;5.47;1.50;;;21.30;78.90;;;;;;12127645;28;20066;-45
2021/08/26 19:47:49;;;;;;;4.00;1.67;;;21.30;79.40;;;;;;12135740;28;20039;-46
2021/08/26 19:53:36;;;;;;;4.60;1.77;;;21.20;78.80;;;;;;12129380;28;20048;-45
2021/08/26 19:59:23;;;;;;;4.93;1.70;;;21.00;80.00;;;;;;12125600;28;20050;-46
2021/08/26 20:05:12;;;;;;;3.53;1.80;;;21.20;80.20;;;;;;12138389;28;20040;-46
2021/08/26 20:10:58;;;;;;;4.43;2.30;;;21.40;80.10;;;;;;12128956;28;20043;-47
2021/08/26 20:16:45;;;;;;;13.80;2.90;;;21.40;80.20;;;;;;12122597;28;20475;-46
2021/08/26 20:22:34;;;;;;;8.27;2.17;;;20.70;82.50;;;;;;12133764;28;20051;-46
2021/08/26 20:28:21;;;;;;;7.03;2.40;;;20.70;83.00;;;;;;12130109;28;20727;-47
2021/08/26 20:34:07;;;;;;;22.30;12.57;;;21.10;82.50;;;;;;12127482;28;20155;-44
2021/08/26 20:39:56;;;;;;;15.07;7.28;;;21.10;83.00;;;;;;12142314;28;20047;-47
2021/08/26 20:45:43;;;;;;;4.78;2.30;;;21.00;82.60;;;;;;12127582;28;20568;-44
2021/08/26 20:51:30;;;;;;;7.00;1.98;;;21.30;82.10;;;;;;12142267;27;20698;-46
2021/08/26 20:57:18;;;;;;;5.80;2.42;;;21.10;82.80;;;;;;12153445;27;20168;-44
2021/08/26 21:03:05;;;;;;;6.15;2.08;;;21.00;82.80;;;;;;12149044;27;20042;-45
2021/08/26 21:08:52;;;;;;;5.15;2.40;;;21.00;82.90;;;;;;12156979;27;20058;-45
2021/08/26 21:14:41;;;;;;;5.65;2.40;;;21.00;83.10;;;;;;12152365;27;20047;-45
2021/08/26 21:20:28;;;;;;;6.03;2.00;;;21.00;83.70;;;;;;12142119;27;20545;-50
2021/08/26 21:26:17;;;;;;;8.77;2.38;;;21.10;83.30;;;;;;12146425;27;20047;-50
2021/08/26 21:32:06;;;;;;;5.20;2.10;;;21.20;83.40;;;;;;12139747;27;20598;-52
2021/08/26 21:37:53;;;;;;;7.47;2.42;;;21.20;83.10;;;;;;12123974;27;20043;-49
2021/08/26 21:43:39;;;;;;;4.53;1.83;;;21.30;83.60;;;;;;12147910;27;20048;-51
2021/08/26 21:49:28;;;;;;;8.85;2.72;;;21.20;82.80;;;;;;12139273;27;20525;-51
2021/08/26 21:55:15;;;;;;;6.68;2.28;;;20.90;82.90;;;;;;12141765;27;20519;-51
2021/08/26 22:01:02;;;;;;;8.05;2.83;;;20.80;83.00;;;;;;12150800;27;20055;-49
2021/08/26 22:06:50;;;;;;;6.80;2.72;;;20.90;82.60;;;;;;12132587;27;20056;-51
2021/08/26 22:12:37;;;;;;;9.70;2.97;;;20.80;82.50;;;;;;12140508;27;20044;-51
2021/08/26 22:18:25;;;;;;;10.70;3.88;;;21.00;82.60;;;;;;12141794;28;20048;-48
2021/08/26 22:24:14;;;;;;;11.80;3.95;;;21.10;81.50;;;;;;12141649;28;20052;-50
